メインページ
METAR-TAF:

METAR-TAF

空港 :

バグダード国際空港

バグダード, イラク

緯度: 33-15-45N, 経度: 44-14-04E, 海抜: 35m

現時点の気象観測

当レポートは36分前の07:00(UTC)に作成
北西の風 12kt
気温 35°C
湿度 37%
気圧 1000 hPa
視程10km以上
1,500メートル以下は雲なし、積乱雲なし

METAR: ORBI 190700Z 32012KT CAVOK 35/18 Q1000 NOSIG

時間: 10:36 (07:36 UTC)

予報

当レポートは3時間36分前の04:00(UTC)に作成
予報は19日の 06時(UTC)から 20日の 06時(UTC)まで有効
西/北西の風 10kt
視程: 8000m

TAF: ORBI 190400Z 1906/2006 30010KT 8000 NSC

4,000以上の空港の気象観測と天気予報(METAR報とTAF報)

利用可能な観測所は地図上に黄色い丸と赤い丸で示す。

丸の上にカーソルを重ねると観測所名を参照できる。

次にクリックすると気象観測と天気予報を参照できる。

マップの切り替え:黒色「×」印の緑ボタンをクリックして拡大、「-」印の緑ボタンをクリックして縮小、緑色の三角印をクリックして隣りの地図に切り替え


METAR-TAF: